Grand Princess — ZCBU5 — position and weather

sailwx.info

Track history (hours):
 
Tides and Currents Weather Stations Pressure Air Temp Water Temp Dewpoint Dewpoint Depression Visibility Wind Speed Wind Dir Waves Ship Positions

Grand Princess

Operator: Princess Cruises

Last reported at 2015-Sep-03 23:33 UTC. Time now 2015-Sep-04 18:44 UTC.
Position N 58°22' W 136°01'.

Length 289.5 m; beam 36 m; draft 8.5 m.

Type: Ship. MMSI: 310327000.

Date/timePositionNaut miles runAvg speedWind from/ knotsBaromVisibWave heightAir tempDewpointWater temp
2015-Sep-03 23:33N 58°22' W 136°01'9 8.6
2015-Sep-03 22:33N 58°30' W 136°04'1917.4
2015-Sep-03 21:26N 58°47' W 136°23'11 2.2
2015-Sep-03 16:30N 58°53' W 136°41'1718.1
2015-Sep-03 15:33N 58°43' W 136°14'1515.4
2015-Sep-03 14:33N 58°28' W 136°02'1110.7
2015-Sep-03 13:33N 58°19' W 135°53'1212.2
2015-Sep-03 12:32N 58°15' W 135°30'  
2015-Sep-01 03:33N 56°23' W 133°31'35410.4
2015-Aug-30 17:33N 51°18' W 128°26'1414.3
2015-Aug-30 16:32N 51°08' W 128°09'1414.5
2015-Aug-30 15:33N 51°00' W 127°50'1312.7
2015-Aug-30 14:33N 50°52' W 127°34'1413.6
2015-Aug-30 13:33N 50°46' W 127°14'1413.5
2015-Aug-30 12:33N 50°42' W 126°55'6512.9
2015-Aug-30 07:29N 50°13' W 125°22'1313.6
2015-Aug-30 06:33N 50°02' W 125°13'1414.5
2015-Aug-30 05:33N 49°50' W 124°59'1515.2
2015-Aug-30 04:33N 49°39' W 124°43'1716.7
2015-Aug-30 03:34N 49°28' W 124°25'1616.5
2015-Aug-30 02:34N 49°23' W 124°00'1716.7
2015-Aug-30 01:33N 49°20' W 123°35'1616.1
2015-Aug-30 00:33N 49°19' W 123°10'3 3.0
2015-Aug-29 23:32N 49°17' W 123°06'0 0.0
2015-Aug-29 22:32N 49°17' W 123°06'0 0.0
2015-Aug-29 21:31N 49°17' W 123°06'0 0.0
2015-Aug-29 20:31N 49°17' W 123°06'0 0.0
2015-Aug-29 19:34N 49°17' W 123°06'0 0.0
2015-Aug-29 18:33N 49°17' W 123°06'0 0.0
2015-Aug-29 17:33N 49°17' W 123°06'0 0.0
2015-Aug-29 16:32N 49°17' W 123°06'0 0.0
2015-Aug-29 15:32N 49°17' W 123°06'0 0.0
2015-Aug-29 14:31N 49°17' W 123°06'0 0.2
2015-Aug-29 13:33N 49°18' W 123°06'8 7.5
2015-Aug-29 12:33N 49°17' W 123°18'9 9.4
2015-Aug-29 11:33N 49°09' W 123°26'4 3.6
2015-Aug-29 10:33N 49°10' W 123°31'8 8.3
2015-Aug-29 09:33N 49°16' W 123°40'9 9.1
2015-Aug-29 08:33N 49°20' W 123°53'9 9.2
2015-Aug-29 07:33N 49°22' W 124°06'9 9.3
2015-Aug-29 06:33N 49°26' W 124°20'9 9.1
2015-Aug-29 05:33N 49°31' W 124°31'9 9.1
2015-Aug-29 04:33N 49°38' W 124°40'9 9.2
2015-Aug-29 03:32N 49°45' W 124°50'9 9.1
2015-Aug-29 02:33N 49°51' W 124°59'10 8.9
2015-Aug-29 01:29N 49°58' W 125°10'1010.9
2015-Aug-29 00:33N 50°07' W 125°18'1513.4
2015-Aug-28 23:25N 50°21' W 125°28'5017.4
2015-Aug-28 20:31N 50°36' W 126°43'1819.1
2015-Aug-28 19:33N 50°45' W 127°08'1919.4
2015-Aug-28 18:34N 50°53' W 127°36'1615.8
2015-Aug-28 17:33N 51°03' W 127°56'  
2015-Aug-25 08:22N 58°17' W 134°60'810.1
2015-Aug-25 07:33N 58°09' W 135°03'9 8.7
2015-Aug-25 06:33N 58°10' W 135°19'9 9.1
2015-Aug-25 05:33N 58°14' W 135°34'9 9.1
2015-Aug-25 04:33N 58°18' W 135°49'9 8.9
2015-Aug-25 03:33N 58°25' W 135°60'1010.5
2015-Aug-25 02:33N 58°36' W 136°04'1312.9
2015-Aug-25 01:32N 58°46' W 136°21'510.0
2015-Aug-25 01:00N 58°48' W 136°30'   340 / 81017.710.8 14.5 8.6 9.0
Track history (hours):
 
Tides and Currents Weather Stations Pressure Air Temp Water Temp Dewpoint Dewpoint Depression Visibility Wind Speed Wind Dir Waves Ship Positions

Grand Princess

Operator: Princess Cruises

Last reported at 2015-Sep-03 23:33 UTC. Time now 2015-Sep-04 18:44 UTC.
Position N 58°22' W 136°01'.

Length 289.5 m; beam 36 m; draft 8.5 m.

Type: Ship. MMSI: 310327000.

Date/timePositionNaut miles runAvg speedWind from/ knotsBaromVisibWave heightAir tempDewpointWater temp
2015-Sep-03 23:33N 58°22' W 136°01'9 8.6
2015-Sep-03 22:33N 58°30' W 136°04'1917.4
2015-Sep-03 21:26N 58°47' W 136°23'11 2.2
2015-Sep-03 16:30N 58°53' W 136°41'1718.1
2015-Sep-03 15:33N 58°43' W 136°14'1515.4
2015-Sep-03 14:33N 58°28' W 136°02'1110.7
2015-Sep-03 13:33N 58°19' W 135°53'1212.2
2015-Sep-03 12:32N 58°15' W 135°30'  
2015-Sep-01 03:33N 56°23' W 133°31'35410.4
2015-Aug-30 17:33N 51°18' W 128°26'1414.3
2015-Aug-30 16:32N 51°08' W 128°09'1414.5
2015-Aug-30 15:33N 51°00' W 127°50'1312.7
2015-Aug-30 14:33N 50°52' W 127°34'1413.6
2015-Aug-30 13:33N 50°46' W 127°14'1413.5
2015-Aug-30 12:33N 50°42' W 126°55'6512.9
2015-Aug-30 07:29N 50°13' W 125°22'1313.6
2015-Aug-30 06:33N 50°02' W 125°13'1414.5
2015-Aug-30 05:33N 49°50' W 124°59'1515.2
2015-Aug-30 04:33N 49°39' W 124°43'1716.7
2015-Aug-30 03:34N 49°28' W 124°25'1616.5
2015-Aug-30 02:34N 49°23' W 124°00'1716.7
2015-Aug-30 01:33N 49°20' W 123°35'1616.1
2015-Aug-30 00:33N 49°19' W 123°10'3 3.0
2015-Aug-29 23:32N 49°17' W 123°06'0 0.0
2015-Aug-29 22:32N 49°17' W 123°06'0 0.0
2015-Aug-29 21:31N 49°17' W 123°06'0 0.0
2015-Aug-29 20:31N 49°17' W 123°06'0 0.0
2015-Aug-29 19:34N 49°17' W 123°06'0 0.0
2015-Aug-29 18:33N 49°17' W 123°06'0 0.0
2015-Aug-29 17:33N 49°17' W 123°06'0 0.0
2015-Aug-29 16:32N 49°17' W 123°06'0 0.0
2015-Aug-29 15:32N 49°17' W 123°06'0 0.0
2015-Aug-29 14:31N 49°17' W 123°06'0 0.2
2015-Aug-29 13:33N 49°18' W 123°06'8 7.5
2015-Aug-29 12:33N 49°17' W 123°18'9 9.4
2015-Aug-29 11:33N 49°09' W 123°26'4 3.6
2015-Aug-29 10:33N 49°10' W 123°31'8 8.3
2015-Aug-29 09:33N 49°16' W 123°40'9 9.1
2015-Aug-29 08:33N 49°20' W 123°53'9 9.2
2015-Aug-29 07:33N 49°22' W 124°06'9 9.3
2015-Aug-29 06:33N 49°26' W 124°20'9 9.1
2015-Aug-29 05:33N 49°31' W 124°31'9 9.1
2015-Aug-29 04:33N 49°38' W 124°40'9 9.2
2015-Aug-29 03:32N 49°45' W 124°50'9 9.1
2015-Aug-29 02:33N 49°51' W 124°59'10 8.9
2015-Aug-29 01:29N 49°58' W 125°10'1010.9
2015-Aug-29 00:33N 50°07' W 125°18'1513.4
2015-Aug-28 23:25N 50°21' W 125°28'5017.4
2015-Aug-28 20:31N 50°36' W 126°43'1819.1
2015-Aug-28 19:33N 50°45' W 127°08'1919.4
2015-Aug-28 18:34N 50°53' W 127°36'1615.8
2015-Aug-28 17:33N 51°03' W 127°56'  
2015-Aug-25 08:22N 58°17' W 134°60'810.1
2015-Aug-25 07:33N 58°09' W 135°03'9 8.7
2015-Aug-25 06:33N 58°10' W 135°19'9 9.1
2015-Aug-25 05:33N 58°14' W 135°34'9 9.1
2015-Aug-25 04:33N 58°18' W 135°49'9 8.9
2015-Aug-25 03:33N 58°25' W 135°60'1010.5
2015-Aug-25 02:33N 58°36' W 136°04'1312.9
2015-Aug-25 01:32N 58°46' W 136°21'510.0
2015-Aug-25 01:00N 58°48' W 136°30'   340 / 81017.710.8 14.5 8.6 9.0

Dump ship's entire track history